Time;durP1;ratioP1;P1;durP2;ratioP2;P2;SDS_P1;SDS_P2;PMS_P1;PMS_P2;Temp;Humidity;BMP_temperature;BMP_pressure;BME280_temperature;BME280_humidity;BME280_pressure;Samples;Min_cycle;Max_cycle;Signal;HPM_P1;HPM_P2
2022/10/05 00:03:26;;;;;;;7.30;4.40;;;15.40;99.90;;;;;;5030954;28;20396;-64
2022/10/05 00:06:30;;;;;;;12.45;4.78;;;15.40;99.90;;;;;;5031191;28;20598;-65
2022/10/05 00:09:53;;;;;;;9.27;4.30;;;15.30;99.90;;;;;;5030956;28;20040;-65
2022/10/05 00:12:56;;;;;;;8.63;4.65;;;15.20;99.90;;;;;;5031005;28;20048;-64
2022/10/05 00:16:18;;;;;;;6.85;4.38;;;15.10;99.90;;;;;;5031021;28;20044;-65
2022/10/05 00:19:31;;;;;;;10.38;4.10;;;15.00;99.90;;;;;;5030952;28;20048;-65
2022/10/05 00:22:35;;;;;;;8.90;4.88;;;14.90;99.90;;;;;;5030973;28;20056;-65
2022/10/05 00:25:39;;;;;;;8.40;4.57;;;14.80;99.90;;;;;;5029933;28;20500;-65
2022/10/05 00:28:43;;;;;;;9.57;4.60;;;14.70;99.90;;;;;;5030865;28;20057;-64
2022/10/05 00:31:47;;;;;;;11.15;5.45;;;14.70;99.90;;;;;;5029810;28;20060;-64
2022/10/05 00:34:51;;;;;;;9.07;4.85;;;14.70;99.90;;;;;;5030255;28;20092;-65
2022/10/05 00:37:55;;;;;;;10.13;5.38;;;14.70;99.90;;;;;;5030263;28;20499;-64
2022/10/05 00:41:05;;;;;;;8.63;5.57;;;14.70;99.90;;;;;;5030740;28;20045;-64
2022/10/05 00:45:00;;;;;;;11.55;5.93;;;14.70;99.90;;;;;;5030393;28;20052;-64
2022/10/05 00:48:28;;;;;;;15.18;6.13;;;14.70;99.90;;;;;;5030236;28;20057;-64
2022/10/05 00:55:22;;;;;;;14.20;4.85;;;14.70;99.90;;;;;;5029077;28;20808;-65
2022/10/05 00:58:26;;;;;;;8.70;5.05;;;14.70;99.90;;;;;;5029600;28;20052;-64
2022/10/05 01:02:25;;;;;;;9.77;5.22;;;14.60;99.90;;;;;;5029780;28;20109;-64
2022/10/05 01:10:21;;;;;;;7.35;4.75;;;14.30;99.90;;;;;;5029690;28;20061;-64
2022/10/05 01:13:44;;;;;;;9.77;6.57;;;14.20;99.90;;;;;;5030420;28;20056;-65
2022/10/05 01:17:06;;;;;;;;;;;14.20;99.90;;;;;;5030374;28;20041;-64
2022/10/05 01:20:31;;;;;;;15.27;6.18;;;14.20;99.90;;;;;;5030332;28;19909;-64
2022/10/05 01:23:39;;;;;;;9.88;5.35;;;14.20;99.90;;;;;;5029816;28;20058;-65
2022/10/05 01:26:55;;;;;;;8.57;5.10;;;14.20;99.90;;;;;;5030112;28;20040;-64
2022/10/05 01:30:24;;;;;;;11.88;5.40;;;14.20;99.90;;;;;;5029343;28;20041;-64
2022/10/05 01:34:21;;;;;;;8.40;5.10;;;14.30;99.90;;;;;;5029717;28;20515;-65
2022/10/05 01:37:44;;;;;;;13.90;5.75;;;14.30;99.90;;;;;;5032904;28;20048;-64
2022/10/05 01:41:11;;;;;;;10.38;5.60;;;14.30;99.90;;;;;;5033651;28;20048;-64
2022/10/05 01:44:37;;;;;;;11.05;5.60;;;14.30;99.90;;;;;;5032648;28;20526;-64
2022/10/05 01:48:06;;;;;;;11.43;6.00;;;14.40;99.90;;;;;;5033636;28;20072;-65
2022/10/05 01:51:37;;;;;;;12.80;5.15;;;14.40;99.90;;;;;;5033175;28;20045;-64
2022/10/05 01:58:51;;;;;;;;;;;14.30;99.90;;;;;;5033768;28;20044;-65
2022/10/05 02:02:06;;;;;;;9.35;6.20;;;14.30;99.90;;;;;;5033537;28;19913;-64
2022/10/05 02:05:45;;;;;;;11.00;6.25;;;14.20;99.90;;;;;;5033113;28;20393;-65
2022/10/05 02:09:13;;;;;;;9.90;6.45;;;14.10;99.90;;;;;;5033476;28;20041;-64
2022/10/05 02:12:20;;;;;;;8.85;6.00;;;14.10;99.90;;;;;;5033250;28;20044;-64
2022/10/05 02:16:07;;;;;;;12.30;6.70;;;14.10;99.90;;;;;;5033002;28;20044;-64
2022/10/05 02:23:18;;;;;;;15.60;7.20;;;14.10;99.90;;;;;;5033143;28;20044;-65
2022/10/05 02:26:24;;;;;;;10.35;5.78;;;14.10;99.90;;;;;;5020332;28;20056;-64
2022/10/05 02:29:49;;;;;;;13.02;6.35;;;14.10;99.90;;;;;;5031713;28;20040;-64
2022/10/05 02:33:05;;;;;;;14.50;6.68;;;14.00;99.90;;;;;;5031737;28;20049;-64
2022/10/05 02:36:34;;;;;;;13.70;6.78;;;14.00;99.90;;;;;;5031707;28;20048;-65
2022/10/05 02:40:06;;;;;;;9.95;5.75;;;14.00;99.90;;;;;;5031720;28;20048;-64
2022/10/05 02:43:16;;;;;;;11.52;6.13;;;14.00;99.90;;;;;;5031457;28;20539;-65
2022/10/05 02:50:25;;;;;;;13.80;7.80;;;13.10;99.90;;;;;;5031661;28;20080;-65
2022/10/05 02:54:06;;;;;;;15.45;8.25;;;13.80;99.90;;;;;;5031095;28;20400;-64
2022/10/05 02:57:41;;;;;;;17.67;8.13;;;13.70;99.90;;;;;;5031597;28;20130;-64
2022/10/05 03:00:53;;;;;;;16.70;7.40;;;13.70;99.90;;;;;;5031156;28;20052;-64
2022/10/05 03:04:24;;;;;;;15.40;7.97;;;13.70;99.90;;;;;;5032442;28;20064;-64
2022/10/05 03:07:50;;;;;;;16.00;8.13;;;13.60;99.90;;;;;;5031031;28;20052;-64
2022/10/05 03:11:22;;;;;;;10.52;7.20;;;13.50;99.90;;;;;;5031627;28;20052;-64
2022/10/05 03:14:47;;;;;;;14.77;7.40;;;13.50;99.90;;;;;;5030689;28;20045;-64
2022/10/05 03:21:42;;;;;;;11.88;6.47;;;13.60;99.90;;;;;;5031260;28;20048;-64
2022/10/05 03:25:10;;;;;;;10.02;6.30;;;13.60;99.90;;;;;;5032199;28;20045;-64
2022/10/05 03:32:05;;;;;;;7.40;5.88;;;13.50;99.90;;;;;;5030681;28;20044;-64
2022/10/05 03:35:16;;;;;;;16.23;8.07;;;13.50;99.90;;;;;;5031248;28;20052;-65
2022/10/05 03:38:39;;;;;;;12.73;7.57;;;13.50;99.90;;;;;;5030620;28;20048;-64
2022/10/05 03:42:02;;;;;;;17.25;8.88;;;13.40;99.90;;;;;;5030695;28;20048;-64
2022/10/05 03:45:06;;;;;;;18.20;9.77;;;13.40;99.90;;;;;;5031356;28;20507;-64
2022/10/05 03:48:14;;;;;;;26.48;12.05;;;13.40;99.90;;;;;;5030280;28;20049;-65
2022/10/05 03:51:33;;;;;;;23.83;12.52;;;13.30;99.90;;;;;;5030740;28;20048;-64
2022/10/05 04:02:35;;;;;;;20.27;12.82;;;13.20;99.90;;;;;;5030133;28;20037;-64
2022/10/05 04:05:47;;;;;;;23.38;13.50;;;13.10;99.90;;;;;;5030213;28;20630;-64
2022/10/05 04:09:13;;;;;;;22.67;12.95;;;13.10;99.90;;;;;;5030186;28;20381;-64
2022/10/05 04:12:47;;;;;;;97.63;14.05;;;13.00;99.90;;;;;;5030200;28;20503;-64
2022/10/05 04:16:19;;;;;;;15.48;11.32;;;13.00;99.90;;;;;;5030867;28;20045;-64
2022/10/05 04:19:31;;;;;;;19.40;12.90;;;12.90;99.90;;;;;;5029946;28;20097;-64
2022/10/05 04:23:16;;;;;;;15.70;10.68;;;12.90;99.90;;;;;;5029860;28;20036;-64
2022/10/05 04:26:47;;;;;;;;;;;12.80;99.90;;;;;;5023386;28;20049;-64
2022/10/05 04:34:11;;;;;;;15.55;10.60;;;12.80;99.90;;;;;;5030338;28;20400;-64
2022/10/05 04:37:24;;;;;;;18.13;11.25;;;12.80;99.90;;;;;;5029354;28;20048;-65
2022/10/05 04:40:37;;;;;;;31.15;12.93;;;12.80;99.90;;;;;;5029656;28;20044;-64
2022/10/05 04:44:17;;;;;;;56.80;13.77;;;12.80;99.90;;;;;;5029653;28;20037;-64
2022/10/05 04:47:44;;;;;;;22.58;13.00;;;12.80;99.90;;;;;;5029678;28;20036;-64
2022/10/05 04:51:16;;;;;;;19.05;12.65;;;12.80;99.90;;;;;;5030864;28;20053;-64
2022/10/05 04:54:40;;;;;;;19.30;11.98;;;12.80;99.90;;;;;;5029188;28;20451;-64
2022/10/05 04:58:07;;;;;;;26.75;14.38;;;12.70;99.90;;;;;;5029551;28;20045;-64
2022/10/05 05:01:34;;;;;;;26.63;14.43;;;12.70;99.90;;;;;;5029477;28;20048;-63
2022/10/05 05:04:41;;;;;;;26.90;16.02;;;12.70;99.90;;;;;;5029131;28;20041;-64
2022/10/05 05:08:04;;;;;;;23.58;14.43;;;12.60;99.90;;;;;;5029723;28;20045;-64
2022/10/05 05:11:17;;;;;;;;;;;12.60;99.90;;;;;;5032393;28;20056;-64
2022/10/05 05:14:43;;;;;;;26.75;16.30;;;12.60;99.90;;;;;;5033156;28;19909;-64
2022/10/05 05:18:36;;;;;;;21.80;12.88;;;12.60;99.90;;;;;;5033538;28;20048;-64
2022/10/05 05:22:06;;;;;;;39.22;15.05;;;12.60;99.90;;;;;;5033621;28;20685;-64
2022/10/05 05:25:13;;;;;;;42.30;16.00;;;12.50;99.90;;;;;;5032840;28;20044;-64
2022/10/05 05:28:44;;;;;;;22.83;14.15;;;12.50;99.90;;;;;;5033682;28;20053;-63
2022/10/05 05:32:30;;;;;;;19.42;13.70;;;12.50;99.90;;;;;;5034269;28;20091;-63
2022/10/05 05:36:05;;;;;;;20.17;12.88;;;12.60;99.90;;;;;;5033410;28;20060;-63
2022/10/05 05:39:47;;;;;;;27.05;13.48;;;12.70;99.90;;;;;;5034205;28;20041;-63
2022/10/05 05:46:47;;;;;;;26.80;12.80;;;12.80;99.90;;;;;;5032654;28;20056;-63
2022/10/05 05:50:18;;;;;;;20.05;12.27;;;12.70;99.90;;;;;;5032334;28;20511;-64
2022/10/05 05:53:30;;;;;;;21.95;11.27;;;12.70;99.90;;;;;;5031996;28;20392;-64
2022/10/05 05:56:41;;;;;;;20.25;11.27;;;12.70;99.90;;;;;;5032348;28;20048;-63
2022/10/05 06:00:12;;;;;;;20.40;11.07;;;12.70;99.90;;;;;;5032112;28;20041;-64
2022/10/05 06:03:40;;;;;;;19.55;11.00;;;12.80;99.90;;;;;;5032053;28;20048;-63
2022/10/05 06:06:50;;;;;;;20.52;9.20;;;14.00;99.90;;;;;;5032388;28;20484;-64
2022/10/05 06:10:16;;;;;;;12.52;7.55;;;17.30;99.90;;;;;;5032401;28;20507;-64
2022/10/05 06:14:03;;;;;;;10.40;6.07;;;20.40;99.90;;;;;;5031634;28;20718;-64
2022/10/05 06:17:44;;;;;;;14.15;5.88;;;23.40;99.90;;;;;;5032722;28;20431;-64
2022/10/05 06:21:03;;;;;;;18.30;6.30;;;24.80;99.90;;;;;;5031398;28;20045;-65
2022/10/05 06:24:24;;;;;;;9.30;5.07;;;25.80;99.90;;;;;;5030989;28;20033;-64
2022/10/05 06:27:59;;;;;;;6.57;4.03;;;26.50;99.90;;;;;;5032070;28;20048;-64
2022/10/05 06:31:28;;;;;;;7.15;4.40;;;27.30;99.90;;;;;;5033475;28;20053;-64
2022/10/05 06:34:37;;;;;;;11.82;4.22;;;28.00;99.90;;;;;;5031103;28;20048;-64
2022/10/05 06:37:56;;;;;;;7.57;3.78;;;28.60;99.90;;;;;;5031154;28;20416;-64
2022/10/05 06:41:20;;;;;;;9.63;4.63;;;29.50;99.30;;;;;;5032282;28;20048;-64
2022/10/05 06:45:00;;;;;;;5.97;4.40;;;29.80;97.40;;;;;;5030893;28;20052;-63
2022/10/05 06:52:04;;;;;;;;;;;29.90;96.80;;;;;;5027597;28;20044;-65
2022/10/05 06:58:59;;;;;;;7.05;3.58;;;30.60;95.10;;;;;;5030189;28;20053;-64
2022/10/05 07:02:24;;;;;;;9.43;4.28;;;30.90;94.70;;;;;;5031088;28;20040;-64
2022/10/05 07:05:58;;;;;;;6.90;4.32;;;28.80;94.50;;;;;;5030501;28;20047;-64
2022/10/05 07:09:21;;;;;;;8.05;4.20;;;24.00;98.60;;;;;;5021322;28;20052;-64
2022/10/05 07:13:00;;;;;;;8.02;4.57;;;22.90;99.90;;;;;;5026215;28;20040;-64
2022/10/05 07:19:53;;;;;;;7.60;3.80;;;23.50;99.90;;;;;;5037878;28;20044;-64
2022/10/05 07:23:21;;;;;;;4.95;3.38;;;26.30;99.90;;;;;;5024339;28;20037;-65
2022/10/05 07:26:36;;;;;;;6.57;3.33;;;28.20;97.50;;;;;;5023634;28;20029;-64
2022/10/05 07:30:03;;;;;;;7.47;3.75;;;29.60;95.40;;;;;;5029470;28;21103;-65
2022/10/05 07:33:42;;;;;;;4.97;3.55;;;30.20;94.70;;;;;;5029919;28;20037;-65
2022/10/05 07:40:46;;;;;;;11.55;3.10;;;32.30;92.40;;;;;;5027050;28;20036;-65
2022/10/05 07:44:12;;;;;;;7.47;3.00;;;33.10;91.50;;;;;;5026999;28;20068;-65
2022/10/05 07:47:42;;;;;;;4.32;2.60;;;33.10;90.60;;;;;;5017727;28;20044;-65
2022/10/05 07:51:26;;;;;;;3.95;2.38;;;33.50;90.40;;;;;;5028999;28;20053;-65
2022/10/05 07:55:02;;;;;;;7.72;2.90;;;34.20;89.60;;;;;;5009857;28;20052;-65
2022/10/05 07:58:06;;;;;;;7.28;2.47;;;32.70;89.10;;;;;;5039320;28;20507;-65
2022/10/05 08:01:50;;;;;;;4.63;2.70;;;32.50;89.60;;;;;;5029762;28;20352;-65
2022/10/05 08:05:16;;;;;;;3.00;2.35;;;30.30;90.30;;;;;;5027806;28;20507;-65
2022/10/05 08:12:33;;;;;;;5.22;2.60;;;30.50;91.60;;;;;;5019411;28;20048;-65
2022/10/05 08:15:43;;;;;;;4.00;2.80;;;33.00;90.10;;;;;;5026921;28;20052;-66
2022/10/05 08:19:16;;;;;;;6.15;2.60;;;33.50;88.00;;;;;;5023479;28;20048;-65
2022/10/05 08:29:46;;;;;;;3.42;2.58;;;30.30;91.30;;;;;;5026610;28;20044;-66
2022/10/05 08:33:11;;;;;;;5.25;3.20;;;32.30;90.20;;;;;;5018149;28;20041;-65
2022/10/05 08:36:37;;;;;;;7.82;3.30;;;32.40;89.50;;;;;;5029201;28;20041;-65
2022/10/05 08:40:23;;;;;;;8.73;3.20;;;34.10;87.70;;;;;;5020415;28;20052;-65
2022/10/05 08:43:54;;;;;;;6.97;3.40;;;34.90;85.60;;;;;;5024490;28;20044;-65
2022/10/05 08:47:27;;;;;;;4.97;3.15;;;34.30;84.70;;;;;;5026766;28;20049;-65
2022/10/05 08:50:54;;;;;;;6.03;2.80;;;32.70;87.90;;;;;;5030244;28;20048;-64
2022/10/05 08:54:17;;;;;;;4.57;2.67;;;33.70;86.60;;;;;;5033124;28;20578;-65
2022/10/05 08:58:04;;;;;;;4.85;2.70;;;33.60;86.80;;;;;;5022973;28;20084;-65
2022/10/05 09:01:24;;;;;;;4.82;2.78;;;32.90;88.30;;;;;;5029529;28;20072;-64
2022/10/05 09:04:47;;;;;;;8.88;3.60;;;34.80;85.90;;;;;;5040461;28;20479;-65
2022/10/05 09:08:00;;;;;;;7.22;4.20;;;34.30;84.30;;;;;;5030118;28;20048;-65
2022/10/05 09:11:54;;;;;;;6.07;4.10;;;34.90;84.50;;;;;;5021711;28;20032;-65
2022/10/05 09:15:16;;;;;;;12.20;4.90;;;36.80;83.20;;;;;;5027517;28;20471;-65
2022/10/05 09:18:48;;;;;;;6.97;4.45;;;35.90;81.50;;;;;;5030088;28;20049;-65
2022/10/05 09:22:29;;;;;;;11.82;5.13;;;35.00;82.00;;;;;;5024907;28;20061;-65
2022/10/05 09:25:53;;;;;;;7.47;3.90;;;36.70;82.20;;;;;;5029523;28;20039;-66
2022/10/05 09:29:28;;;;;;;6.10;4.03;;;39.30;76.70;;;;;;5030061;28;20046;-65
2022/10/05 09:33:04;;;;;;;7.50;4.15;;;39.30;77.60;;;;;;5030314;28;20052;-65
2022/10/05 09:36:31;;;;;;;6.43;3.83;;;37.00;78.70;;;;;;5027030;28;20040;-65
2022/10/05 09:39:54;;;;;;;5.72;3.80;;;38.20;77.90;;;;;;5023196;28;20045;-65
2022/10/05 09:43:30;;;;;;;7.40;3.33;;;37.20;78.90;;;;;;5028604;28;20048;-65
2022/10/05 09:46:53;;;;;;;6.93;3.10;;;37.40;79.20;;;;;;5028055;28;20412;-65
2022/10/05 09:50:21;;;;;;;9.27;3.58;;;38.70;77.10;;;;;;5030183;28;20049;-65
2022/10/05 09:53:44;;;;;;;5.13;3.20;;;38.60;77.10;;;;;;5023634;28;20472;-65
2022/10/05 09:57:02;;;;;;;4.32;2.65;;;37.20;77.40;;;;;;5032178;28;20056;-65
2022/10/05 10:00:09;;;;;;;11.05;3.63;;;38.40;78.30;;;;;;5018421;28;20491;-66
2022/10/05 10:03:25;;;;;;;;;;;39.70;76.00;;;;;;5031491;28;20048;-65
2022/10/05 10:06:38;;;;;;;5.13;2.65;;;38.80;75.70;;;;;;5032220;28;19921;-65
2022/10/05 10:10:03;;;;;;;8.45;2.97;;;37.70;74.80;;;;;;5032677;28;20037;-65
2022/10/05 10:13:20;;;;;;;7.15;2.75;;;38.30;76.60;;;;;;5016981;28;20037;-65
2022/10/05 10:16:52;;;;;;;4.88;2.30;;;39.80;75.40;;;;;;5033189;28;20036;-65
2022/10/05 10:20:29;;;;;;;5.20;2.83;;;40.00;74.10;;;;;;5026842;28;20052;-65
2022/10/05 10:23:45;;;;;;;5.30;2.60;;;37.60;74.10;;;;;;5026498;28;20048;-65
2022/10/05 10:27:17;;;;;;;3.35;2.38;;;39.90;72.80;;;;;;5033143;28;20061;-65
2022/10/05 10:34:17;;;;;;;6.88;3.60;;;41.20;70.90;;;;;;5030674;28;20499;-66
2022/10/05 10:37:21;;;;;;;;;;;40.90;70.80;;;;;;5033476;28;20044;-65
2022/10/05 10:41:18;;;;;;;9.48;3.97;;;38.10;70.40;;;;;;5032847;28;19909;-65
2022/10/05 10:45:02;;;;;;;6.43;2.97;;;39.00;72.40;;;;;;5025085;28;20057;-66
2022/10/05 10:52:19;;;;;;;6.45;2.88;;;40.90;70.90;;;;;;5028625;28;20052;-66
2022/10/05 10:56:10;;;;;;;5.20;2.78;;;41.90;70.10;;;;;;5027570;28;20117;-66
2022/10/05 11:00:14;;;;;;;5.35;2.63;;;44.30;68.30;;;;;;5028347;28;20037;-66
2022/10/05 11:03:32;;;;;;;5.30;2.60;;;45.40;66.50;;;;;;5022507;28;20037;-65
2022/10/05 11:06:52;;;;;;;5.75;2.30;;;45.80;65.90;;;;;;5027356;28;20048;-64
2022/10/05 11:10:24;;;;;;;7.32;2.53;;;46.50;64.10;;;;;;5028012;28;20052;-64
2022/10/05 11:13:46;;;;;;;7.55;2.60;;;44.50;63.00;;;;;;5030329;28;20040;-66
2022/10/05 11:21:17;;;;;;;5.32;1.95;;;44.20;64.10;;;;;;5021911;28;20052;-65
2022/10/05 11:24:39;;;;;;;6.90;2.33;;;44.80;63.80;;;;;;5027340;28;20037;-66
2022/10/05 11:28:08;;;;;;;6.07;1.85;;;44.70;63.80;;;;;;5026609;28;20049;-66
2022/10/05 11:31:35;;;;;;;6.13;1.55;;;42.20;63.90;;;;;;5030822;28;21022;-66
2022/10/05 11:34:52;;;;;;;4.18;1.60;;;43.70;65.00;;;;;;5028799;28;20037;-66
2022/10/05 11:38:04;;;;;;;2.78;1.45;;;44.60;64.90;;;;;;5026107;28;20120;-66
2022/10/05 11:41:31;;;;;;;2.58;1.60;;;45.40;61.60;;;;;;5029791;28;20048;-66
2022/10/05 11:45:13;;;;;;;3.33;1.42;;;45.10;63.20;;;;;;5016246;28;20416;-65
2022/10/05 11:48:36;;;;;;;3.47;1.60;;;44.90;61.60;;;;;;5030012;28;20052;-66
2022/10/05 11:51:59;;;;;;;4.43;1.92;;;44.70;62.20;;;;;;5030295;28;20037;-66
2022/10/05 11:55:22;;;;;;;2.90;1.50;;;45.00;62.70;;;;;;5024644;28;20078;-65
2022/10/05 11:58:53;;;;;;;5.70;1.40;;;44.50;62.20;;;;;;5020658;28;20385;-66
2022/10/05 12:06:11;;;;;;;2.83;1.57;;;42.50;64.20;;;;;;5029061;28;19913;-66
2022/10/05 12:09:37;;;;;;;3.08;1.65;;;38.80;65.40;;;;;;5026174;28;20784;-66
2022/10/05 12:13:03;;;;;;;8.07;1.67;;;40.10;66.90;;;;;;5023844;28;20036;-66
2022/10/05 12:16:49;;;;;;;4.63;1.73;;;41.80;65.50;;;;;;5029147;28;20044;-66
2022/10/05 12:19:58;;;;;;;4.60;1.98;;;42.80;65.30;;;;;;5005404;28;20041;-66
2022/10/05 12:23:45;;;;;;;7.20;2.78;;;43.70;64.60;;;;;;5025368;28;20036;-67
2022/10/05 12:35:37;;;;;;;;;;;45.10;62.10;;;;;;5027462;28;20526;-67
2022/10/05 12:38:51;;;;;;;4.60;2.03;;;42.90;62.20;;;;;;5029756;28;19913;-66
2022/10/05 12:42:33;;;;;;;8.13;1.90;;;43.30;63.10;;;;;;5029610;28;20048;-66
2022/10/05 12:46:02;;;;;;;4.47;2.10;;;43.20;62.70;;;;;;5027845;28;20060;-66
2022/10/05 12:49:15;;;;;;;5.78;2.55;;;43.10;62.00;;;;;;5025945;28;20049;-66
2022/10/05 12:52:44;;;;;;;3.25;1.60;;;40.30;63.60;;;;;;5026207;28;20392;-66
2022/10/05 12:56:25;;;;;;;2.72;1.70;;;40.80;62.70;;;;;;5025323;28;20040;-66
2022/10/05 12:59:46;;;;;;;5.13;2.00;;;41.20;63.50;;;;;;5025404;28;20040;-66
2022/10/05 13:03:23;;;;;;;3.60;1.73;;;41.40;62.20;;;;;;5022491;28;20040;-65
2022/10/05 13:07:02;;;;;;;3.75;1.98;;;37.80;63.10;;;;;;5028481;28;20048;-66
2022/10/05 13:10:26;;;;;;;4.35;1.65;;;38.20;65.10;;;;;;5028167;28;20040;-65
2022/10/05 13:14:02;;;;;;;3.55;1.80;;;40.20;64.70;;;;;;5025193;28;20068;-65
2022/10/05 13:18:04;;;;;;;5.85;1.75;;;37.40;63.10;;;;;;5025243;28;20049;-65
2022/10/05 13:21:26;;;;;;;3.88;1.65;;;37.00;66.00;;;;;;5029106;28;20041;-65
2022/10/05 13:24:44;;;;;;;5.57;1.70;;;38.40;65.20;;;;;;5028469;28;20044;-66
2022/10/05 13:32:29;;;;;;;4.30;1.65;;;39.70;61.90;;;;;;5029426;28;20507;-66
2022/10/05 13:35:42;;;;;;;3.35;1.50;;;40.40;62.80;;;;;;5030035;28;20037;-65
2022/10/05 13:39:09;;;;;;;8.55;1.88;;;41.10;63.20;;;;;;5026884;28;20053;-66
2022/10/05 13:42:32;;;;;;;2.63;1.52;;;41.40;62.80;;;;;;5033855;28;20060;-66
2022/10/05 13:45:51;;;;;;;2.67;1.63;;;41.80;61.90;;;;;;5033571;28;20044;-66
2022/10/05 13:48:58;;;;;;;4.85;2.00;;;41.30;61.50;;;;;;5031301;28;20333;-66
2022/10/05 13:52:24;;;;;;;4.72;2.45;;;40.30;63.40;;;;;;5030777;28;20033;-66
2022/10/05 13:55:53;;;;;;;3.20;1.77;;;39.60;63.20;;;;;;5019887;28;20120;-65
2022/10/05 13:59:10;;;;;;;3.90;1.70;;;39.10;63.20;;;;;;5031773;28;20053;-65
2022/10/05 14:05:56;;;;;;;5.07;1.75;;;39.80;64.60;;;;;;5028604;28;20052;-66
2022/10/05 14:09:18;;;;;;;5.03;2.15;;;39.80;64.90;;;;;;5032640;28;20056;-65
2022/10/05 14:12:41;;;;;;;7.38;2.20;;;37.40;65.90;;;;;;5025300;28;20810;-65
2022/10/05 14:16:34;;;;;;;4.97;2.10;;;37.00;66.60;;;;;;5029902;28;20040;-65
2022/10/05 14:20:02;;;;;;;5.78;2.63;;;36.90;68.00;;;;;;5027206;28;20044;-65
2022/10/05 14:30:35;;;;;;;4.45;2.22;;;37.60;67.60;;;;;;5031154;28;20392;-65
2022/10/05 14:33:40;;;;;;;6.25;2.00;;;37.40;68.10;;;;;;5031693;28;20044;-65
2022/10/05 14:36:43;;;;;;;4.28;2.13;;;37.50;68.10;;;;;;5030258;28;20495;-65
2022/10/05 14:39:51;;;;;;;5.85;2.20;;;37.30;68.40;;;;;;5028540;28;20056;-65
2022/10/05 14:42:56;;;;;;;5.15;2.00;;;37.10;69.10;;;;;;5028844;28;20052;-65
2022/10/05 14:46:26;;;;;;;4.50;1.90;;;36.90;68.60;;;;;;5024021;28;20113;-65
2022/10/05 14:50:14;;;;;;;7.22;2.28;;;36.60;69.30;;;;;;5024483;28;20045;-65
2022/10/05 14:53:23;;;;;;;4.80;2.35;;;36.30;69.20;;;;;;5029702;28;20041;-65
2022/10/05 14:56:39;;;;;;;4.13;1.80;;;36.00;70.20;;;;;;5030179;28;20515;-65
2022/10/05 15:04:11;;;;;;;4.18;2.25;;;34.50;70.60;;;;;;5027890;28;20037;-64
2022/10/05 15:07:42;;;;;;;4.57;2.72;;;33.90;71.60;;;;;;5024743;28;20413;-64
2022/10/05 15:10:59;;;;;;;4.68;1.90;;;33.50;72.30;;;;;;5018736;28;20044;-65
2022/10/05 15:14:41;;;;;;;5.35;2.33;;;33.10;72.20;;;;;;5031713;28;20043;-65
2022/10/05 15:21:43;;;;;;;4.72;2.22;;;31.70;74.90;;;;;;5021551;28;20082;-64
2022/10/05 15:25:21;;;;;;;5.50;2.30;;;31.20;75.60;;;;;;5028922;28;20055;-65
2022/10/05 15:32:36;;;;;;;5.28;2.17;;;30.30;77.70;;;;;;5023784;28;20044;-64
2022/10/05 15:36:17;;;;;;;6.13;2.22;;;29.80;77.20;;;;;;5025043;28;20048;-64
2022/10/05 15:40:01;;;;;;;8.18;2.58;;;29.50;79.20;;;;;;5025316;28;20033;-64
2022/10/05 15:43:31;;;;;;;7.55;3.35;;;29.00;79.80;;;;;;5030286;28;20564;-64
2022/10/05 15:46:55;;;;;;;7.35;2.63;;;28.70;80.40;;;;;;5024804;28;20479;-64
2022/10/05 15:50:41;;;;;;;4.13;2.35;;;28.40;81.70;;;;;;5030939;28;20056;-65
2022/10/05 15:58:18;;;;;;;5.43;2.28;;;27.50;85.30;;;;;;5023165;28;20048;-65
2022/10/05 16:01:31;;;;;;;5.10;2.28;;;27.10;85.60;;;;;;5031367;28;20040;-66
2022/10/05 16:04:59;;;;;;;5.80;2.30;;;26.70;86.30;;;;;;5031549;28;20055;-65
2022/10/05 16:12:17;;;;;;;4.35;2.20;;;26.20;89.00;;;;;;5031000;28;20578;-65
2022/10/05 16:15:35;;;;;;;4.57;1.90;;;25.80;89.40;;;;;;5031147;28;20503;-65
2022/10/05 16:19:18;;;;;;;3.58;2.35;;;25.60;90.40;;;;;;5031345;28;20044;-65
2022/10/05 16:22:50;;;;;;;5.65;2.50;;;25.30;90.90;;;;;;5031110;28;20048;-66
2022/10/05 16:26:21;;;;;;;6.47;3.03;;;25.10;91.90;;;;;;5031222;28;20040;-65
2022/10/05 16:29:58;;;;;;;3.38;2.40;;;24.90;92.10;;;;;;5030515;28;20045;-66
2022/10/05 16:33:22;;;;;;;5.65;2.40;;;24.80;92.80;;;;;;5030754;28;20057;-66
2022/10/05 16:36:30;;;;;;;6.13;2.75;;;24.50;92.70;;;;;;5031310;28;20400;-65
2022/10/05 16:39:58;;;;;;;8.48;3.50;;;24.40;93.30;;;;;;5030767;28;20048;-66
2022/10/05 16:47:19;;;;;;;5.28;2.75;;;24.00;94.10;;;;;;5030975;28;20060;-65
2022/10/05 16:50:48;;;;;;;8.25;3.03;;;23.70;94.30;;;;;;5030960;28;20045;-65
2022/10/05 16:54:17;;;;;;;18.35;5.13;;;23.50;94.90;;;;;;5030288;28;20044;-65
2022/10/05 16:57:36;;;;;;;17.85;6.60;;;23.30;95.30;;;;;;5031048;28;20049;-65
2022/10/05 17:00:55;;;;;;;13.82;4.25;;;23.10;96.10;;;;;;5030914;28;20496;-66
2022/10/05 17:04:41;;;;;;;7.45;3.33;;;22.80;96.70;;;;;;5030730;28;20052;-65
2022/10/05 17:08:32;;;;;;;7.78;3.42;;;22.50;97.60;;;;;;5015682;28;20507;-65
2022/10/05 17:12:00;;;;;;;12.57;3.53;;;22.10;98.60;;;;;;5034760;28;20057;-66
2022/10/05 17:15:49;;;;;;;10.00;3.28;;;21.90;99.40;;;;;;5034172;28;20047;-66
2022/10/05 17:18:53;;;;;;;5.47;2.92;;;21.70;99.90;;;;;;5028156;28;20501;-66
2022/10/05 17:22:04;;;;;;;7.70;2.92;;;21.60;99.90;;;;;;5033710;28;20060;-66
2022/10/05 17:25:11;;;;;;;6.22;2.85;;;21.30;99.90;;;;;;5034468;28;20049;-66
2022/10/05 17:28:30;;;;;;;12.65;5.15;;;21.30;99.90;;;;;;5034195;28;20078;-65
2022/10/05 17:36:03;;;;;;;7.10;3.08;;;21.20;99.90;;;;;;5033628;28;20048;-67
2022/10/05 17:39:44;;;;;;;8.07;3.00;;;21.00;99.90;;;;;;5034116;28;20048;-66
2022/10/05 17:43:14;;;;;;;10.67;3.20;;;21.00;99.90;;;;;;5033881;28;20508;-65
2022/10/05 17:46:47;;;;;;;7.57;2.63;;;20.80;99.90;;;;;;5033975;28;20388;-66
2022/10/05 18:01:15;;;;;;;6.75;2.53;;;20.50;99.90;;;;;;5033773;28;20060;-65
2022/10/05 18:04:29;;;;;;;4.20;2.30;;;20.40;99.90;;;;;;5032725;28;20392;-66
2022/10/05 18:08:10;;;;;;;4.72;2.10;;;20.30;99.90;;;;;;5033060;28;20061;-65
2022/10/05 18:11:35;;;;;;;5.45;2.65;;;20.20;99.90;;;;;;5033407;28;20048;-66
2022/10/05 18:15:11;;;;;;;4.55;2.58;;;20.20;99.90;;;;;;5033169;28;20408;-67
2022/10/05 18:18:33;;;;;;;5.80;2.88;;;20.10;99.90;;;;;;5033146;28;20044;-66
2022/10/05 18:22:05;;;;;;;7.32;2.63;;;20.00;99.90;;;;;;5033064;28;20045;-66
2022/10/05 18:25:18;;;;;;;5.35;2.20;;;20.00;99.90;;;;;;5032635;28;20049;-66
2022/10/05 18:32:25;;;;;;;4.80;2.30;;;19.90;99.90;;;;;;5033366;28;20048;-66
2022/10/05 18:36:06;;;;;;;7.72;2.20;;;19.80;99.90;;;;;;5032458;28;20048;-65
2022/10/05 18:39:29;;;;;;;6.68;2.20;;;19.80;99.90;;;;;;5032850;28;20048;-66
2022/10/05 18:43:09;;;;;;;7.10;2.40;;;19.80;99.90;;;;;;5032757;28;20048;-66
2022/10/05 18:46:56;;;;;;;4.18;2.45;;;19.70;99.90;;;;;;5032639;28;20388;-66
2022/10/05 18:50:22;;;;;;;2.63;2.10;;;19.60;99.90;;;;;;5032482;28;20045;-66
2022/10/05 18:57:27;;;;;;;6.75;2.15;;;19.50;99.90;;;;;;5032504;28;20048;-65
2022/10/05 19:05:07;;;;;;;4.13;1.80;;;19.50;99.90;;;;;;5032232;28;20045;-66
2022/10/05 19:08:38;;;;;;;5.22;2.28;;;19.40;99.90;;;;;;5031729;28;20064;-65
2022/10/05 19:12:08;;;;;;;5.68;2.15;;;19.40;99.90;;;;;;5031937;28;20049;-66
2022/10/05 19:15:54;;;;;;;4.32;2.40;;;19.30;99.90;;;;;;5032062;28;20056;-66
2022/10/05 19:19:22;;;;;;;3.78;2.38;;;19.20;99.90;;;;;;5032064;28;20052;-66
2022/10/05 19:23:04;;;;;;;4.65;2.00;;;19.20;99.90;;;;;;5032465;28;20036;-66
2022/10/05 19:26:08;;;;;;;9.68;2.95;;;19.20;99.90;;;;;;5032313;28;20048;-65
2022/10/05 19:29:49;;;;;;;8.50;2.15;;;19.10;99.90;;;;;;5031341;28;20519;-66
2022/10/05 19:33:52;;;;;;;6.22;2.45;;;19.10;99.90;;;;;;5031604;28;20530;-66
2022/10/05 19:37:22;;;;;;;5.15;2.10;;;19.00;99.90;;;;;;5031062;28;20041;-66
2022/10/05 19:41:07;;;;;;;5.18;2.15;;;19.00;99.90;;;;;;5031747;28;20048;-66
2022/10/05 19:44:40;;;;;;;4.40;2.30;;;18.90;99.90;;;;;;5031250;28;20045;-65
2022/10/05 19:48:02;;;;;;;11.02;2.30;;;18.90;99.90;;;;;;5032539;28;20052;-66
2022/10/05 19:51:29;;;;;;;5.47;2.13;;;18.90;99.90;;;;;;5032038;28;20064;-65
2022/10/05 19:54:34;;;;;;;5.47;2.03;;;18.90;99.90;;;;;;5031477;28;20048;-66
2022/10/05 19:57:50;;;;;;;6.95;2.13;;;18.90;99.90;;;;;;5032144;28;20056;-66
2022/10/05 20:00:55;;;;;;;7.25;2.08;;;18.80;99.90;;;;;;5031222;28;20040;-65
2022/10/05 20:04:37;;;;;;;3.88;1.83;;;18.80;99.90;;;;;;5030236;28;20048;-66
2022/10/05 20:07:41;;;;;;;5.00;2.35;;;18.80;99.90;;;;;;5031522;28;20519;-66
2022/10/05 20:11:21;;;;;;;5.63;1.90;;;18.70;99.90;;;;;;5031402;28;20056;-66
2022/10/05 20:21:45;;;;;;;5.75;2.97;;;18.60;99.90;;;;;;5036863;28;20040;-65
2022/10/05 20:24:51;;;;;;;8.07;2.45;;;18.50;99.90;;;;;;5029919;28;20052;-66
2022/10/05 20:27:56;;;;;;;8.15;2.28;;;18.40;99.90;;;;;;5030146;28;20056;-66
2022/10/05 20:31:00;;;;;;;5.70;2.40;;;18.50;99.90;;;;;;5031256;28;20048;-66
2022/10/05 20:34:04;;;;;;;5.25;2.30;;;18.40;99.90;;;;;;5029842;28;20404;-66